Time;durP1;ratioP1;P1;durP2;ratioP2;P2;SDS_P1;SDS_P2;PMS_P1;PMS_P2;Temp;Humidity;BMP_temperature;BMP_pressure;BME280_temperature;BME280_humidity;BME280_pressure;Samples;Min_cycle;Max_cycle;Signal;HPM_P1;HPM_P2
2022/09/18 00:01:02;;;;;;;;;3.00;3.00;;;;;11.24;73.11;99697.53;5032000;28;8897;-60
2022/09/18 00:03:29;;;;;;;;;1.00;1.00;;;;;11.27;73.08;99705.28;5032448;28;8829;-61
2022/09/18 00:05:57;;;;;;;;;3.25;3.25;;;;;11.30;72.75;99706.84;5032246;28;8832;-60
2022/09/18 00:08:25;;;;;;;;;3.75;3.75;;;;;11.32;72.94;99704.91;5032315;28;8818;-61
2022/09/18 00:10:52;;;;;;;;;1.50;1.50;;;;;11.34;72.98;99701.13;5031286;28;8941;-61
2022/09/18 00:13:20;;;;;;;;;1.00;1.00;;;;;11.37;72.98;99700.84;5031376;28;8836;-61
2022/09/18 00:15:48;;;;;;;;;3.50;3.25;;;;;11.41;73.13;99704.09;5031023;28;8836;-61
2022/09/18 00:18:16;;;;;;;;;6.00;6.00;;;;;11.43;72.77;99700.31;5031596;28;8961;-60
2022/09/18 00:20:43;;;;;;;;;8.50;6.00;;;;;11.44;73.00;99699.34;5031337;28;9768;-61
2022/09/18 00:23:11;;;;;;;;;6.50;5.00;;;;;11.45;72.77;99705.53;5031855;28;9557;-60
2022/09/18 00:25:39;;;;;;;;;4.00;4.00;;;;;11.48;73.06;99699.91;5031808;28;8821;-60
2022/09/18 00:28:06;;;;;;;;;9.25;9.25;;;;;11.49;72.70;99702.47;5030938;28;8848;-60
2022/09/18 00:30:34;;;;;;;;;9.00;9.00;;;;;11.51;73.20;99705.00;5034096;28;8886;-60
2022/09/18 00:33:03;;;;;;;;;7.00;6.00;;;;;11.52;72.81;99702.19;5034733;28;9575;-61
2022/09/18 00:35:30;;;;;;;;;8.50;7.00;;;;;11.55;72.71;99703.75;5034075;28;8907;-60
2022/09/18 00:37:58;;;;;;;;;8.00;8.00;;;;;11.56;73.15;99700.94;5034236;28;8829;-60
2022/09/18 00:40:26;;;;;;;;;4.00;4.00;;;;;11.57;73.07;99691.97;5033612;28;8845;-60
2022/09/18 00:42:53;;;;;;;;;9.00;7.50;;;;;11.57;73.02;99705.31;5034016;28;8852;-61
2022/09/18 00:45:21;;;;;;;;;7.50;6.50;;;;;11.60;72.58;99706.91;5034228;28;8867;-60
2022/09/18 00:47:49;;;;;;;;;6.75;5.50;;;;;11.61;72.56;99705.91;5034410;28;8906;-60
2022/09/18 00:50:16;;;;;;;;;12.50;9.50;;;;;11.63;72.63;99707.47;5034971;28;8841;-61
2022/09/18 00:52:45;;;;;;;;;6.75;5.25;;;;;11.63;72.66;99698.63;5034654;28;8909;-61
2022/09/18 00:55:13;;;;;;;;;6.75;6.75;;;;;11.65;73.06;99696.66;5034707;28;8836;-61
2022/09/18 00:57:40;;;;;;;;;11.50;10.75;;;;;11.65;73.23;99707.31;5034160;28;8917;-61
2022/09/18 01:00:11;;;;;;;;;8.00;7.50;;;;;11.65;72.95;99692.16;5034142;28;8901;-61
2022/09/18 01:02:39;;;;;;;;;9.00;9.00;;;;;11.65;72.84;99697.50;5034673;28;8901;-61
2022/09/18 01:05:06;;;;;;;;;5.50;5.50;;;;;11.65;73.21;99694.84;5034448;28;8829;-61
2022/09/18 01:07:34;;;;;;;;;4.00;3.00;;;;;11.66;73.05;99691.19;5033969;28;8849;-61
2022/09/18 01:10:01;;;;;;;;;8.50;7.00;;;;;11.66;72.90;99696.53;5034181;28;8833;-61
2022/09/18 01:12:29;;;;;;;;;7.50;7.50;;;;;11.65;73.10;99688.63;5033395;28;8917;-60
2022/09/18 01:14:57;;;;;;;;;9.75;8.00;;;;;11.64;73.26;99693.16;5033922;28;8900;-62
2022/09/18 01:17:24;;;;;;;;;9.00;8.00;;;;;11.64;73.36;99695.81;5033933;28;8837;-60
2022/09/18 01:19:52;;;;;;;;;8.00;6.75;;;;;11.64;73.21;99690.47;5034086;28;8848;-60
2022/09/18 01:22:20;;;;;;;;;7.00;6.00;;;;;11.65;72.98;99696.66;5034261;28;8825;-62
2022/09/18 01:24:47;;;;;;;;;11.25;9.75;;;;;11.65;73.27;99683.31;5034246;28;8844;-61
2022/09/18 01:27:15;;;;;;;;;15.00;10.00;;;;;11.65;73.33;99685.97;5034593;28;8821;-62
2022/09/18 01:29:43;;;;;;;;;9.50;8.00;;;;;11.67;73.42;99684.88;5033803;28;8874;-60
2022/09/18 01:32:11;;;;;;;;;6.00;4.00;;;;;11.69;73.49;99688.22;5034221;28;8849;-61
2022/09/18 01:34:38;;;;;;;;;12.00;8.50;;;;;11.70;73.65;99684.63;5034373;28;8821;-61
2022/09/18 01:37:06;;;;;;;;;9.00;6.75;;;;;11.71;73.32;99686.31;5034297;28;8813;-60
2022/09/18 01:39:34;;;;;;;;;10.00;9.00;;;;;11.70;73.77;99686.44;5034511;28;8853;-61
2022/09/18 01:42:02;;;;;;;;;12.50;12.50;;;;;11.69;73.84;99679.41;5033925;28;8848;-60
2022/09/18 01:44:29;;;;;;;;;9.50;8.50;;;;;11.69;73.34;99676.75;5034396;28;8821;-61
2022/09/18 01:46:57;;;;;;;;;9.25;9.25;;;;;11.68;73.14;99686.56;5034079;28;8828;-61
2022/09/18 01:49:25;;;;;;;;;10.00;9.25;;;;;11.68;73.67;99689.22;5034347;28;9752;-60
2022/09/18 01:51:52;;;;;;;;;6.75;6.00;;;;;11.69;73.58;99687.41;5033998;28;8973;-61
2022/09/18 01:54:20;;;;;;;;;10.00;8.25;;;;;11.69;73.56;99684.75;5033839;28;8845;-61
2022/09/18 01:56:48;;;;;;;;;7.00;6.50;;;;;11.71;73.69;99685.44;5033700;28;8921;-60
2022/09/18 01:59:16;;;;;;;;;9.00;7.00;;;;;11.73;73.35;99686.16;5032899;28;8862;-61
2022/09/18 02:01:43;;;;;;;;;11.50;10.00;;;;;11.72;73.51;99677.31;5033708;28;8892;-60
2022/09/18 02:04:12;;;;;;;;;8.50;7.00;;;;;11.74;73.69;99686.03;5033562;28;8832;-60
2022/09/18 02:06:39;;;;;;;;;10.25;10.00;;;;;11.73;73.85;99681.66;5033983;28;8845;-60
2022/09/18 02:09:07;;;;;;;;;9.00;9.00;;;;;11.74;73.47;99678.00;5033486;28;8817;-61
2022/09/18 02:11:34;;;;;;;;;10.00;10.00;;;;;11.73;73.61;99668.31;5033882;28;8841;-61
2022/09/18 02:14:04;;;;;;;;;12.25;12.00;;;;;11.73;73.60;99663.00;5034040;28;8836;-61
2022/09/18 02:16:32;;;;;;;;;15.50;13.50;;;;;11.74;73.92;99671.84;5033768;28;8848;-60
2022/09/18 02:18:59;;;;;;;;;7.50;7.00;;;;;11.73;73.46;99664.81;5033855;28;8821;-61
2022/09/18 02:21:27;;;;;;;;;6.50;6.50;;;;;11.74;73.74;99664.69;5033683;28;8880;-61
2022/09/18 02:23:55;;;;;;;;;7.50;6.50;;;;;11.74;73.97;99670.00;5033905;28;8857;-61
2022/09/18 02:26:22;;;;;;;;;11.00;9.75;;;;;11.74;73.57;99672.69;5033422;28;8829;-60
2022/09/18 02:28:50;;;;;;;;;9.00;8.00;;;;;11.76;73.63;99675.22;5033465;28;8900;-60
2022/09/18 02:31:18;;;;;;;;;9.00;8.00;;;;;11.79;73.54;99666.94;5033826;28;8832;-60
2022/09/18 02:33:46;;;;;;;;;9.50;9.50;;;;;11.78;74.09;99665.25;5033827;28;9537;-61
2022/09/18 02:36:13;;;;;;;;;11.25;9.50;;;;;11.78;73.88;99663.44;5033375;28;8848;-61
2022/09/18 02:38:41;;;;;;;;;7.00;7.00;;;;;11.79;73.95;99657.13;5033628;28;8841;-60
2022/09/18 02:41:09;;;;;;;;;13.75;9.00;;;;;11.79;73.49;99661.59;5032764;28;8826;-60
2022/09/18 02:43:37;;;;;;;;;8.50;7.75;;;;;11.80;73.86;99663.28;5033461;28;8833;-60
2022/09/18 02:46:04;;;;;;;;;11.25;8.75;;;;;11.80;73.55;99666.81;5033499;28;8933;-60
2022/09/18 02:48:32;;;;;;;;;9.75;9.00;;;;;11.82;73.69;99664.00;5032934;28;8855;-60
2022/09/18 02:51:00;;;;;;;;;9.00;9.00;;;;;11.82;73.83;99662.16;5033231;28;8841;-62
2022/09/18 02:53:27;;;;;;;;;10.50;9.75;;;;;11.82;74.11;99667.50;5032606;28;8913;-61
2022/09/18 02:55:55;;;;;;;;;11.50;11.00;;;;;11.83;73.76;99663.84;5032028;28;8833;-61
2022/09/18 02:58:23;;;;;;;;;8.00;6.75;;;;;11.84;73.81;99654.88;5033212;28;8833;-60
2022/09/18 03:00:50;;;;;;;;;12.25;10.50;;;;;11.84;74.13;99659.38;5033046;28;8882;-61
2022/09/18 03:03:18;;;;;;;;;5.00;4.00;;;;;11.83;73.70;99663.84;5032855;28;8907;-60
2022/09/18 03:05:46;;;;;;;;;8.00;7.00;;;;;11.82;73.81;99656.00;5032628;28;8825;-60
2022/09/18 03:08:14;;;;;;;;;8.75;7.25;;;;;11.81;74.05;99660.47;5033193;28;8909;-60
2022/09/18 03:10:41;;;;;;;;;10.00;8.25;;;;;11.81;73.98;99657.81;5032813;28;8922;-61
2022/09/18 03:13:09;;;;;;;;;11.00;10.00;;;;;11.80;74.12;99656.13;5032722;28;8841;-60
2022/09/18 03:15:36;;;;;;;;;8.50;8.50;;;;;11.80;74.01;99664.13;5032749;28;8890;-61
2022/09/18 03:18:04;;;;;;;;;11.00;9.50;;;;;11.82;74.19;99662.16;5033374;28;8886;-61
2022/09/18 03:20:32;;;;;;;;;9.00;7.50;;;;;11.82;74.38;99656.84;5033215;28;8821;-60
2022/09/18 03:22:59;;;;;;;;;10.00;10.00;;;;;11.83;74.14;99652.34;5032903;28;8921;-60
2022/09/18 03:25:27;;;;;;;;;11.25;10.50;;;;;11.84;73.87;99649.53;5032745;28;8948;-60
2022/09/18 03:27:55;;;;;;;;;8.50;7.00;;;;;11.85;74.08;99642.38;5032827;28;8836;-60
2022/09/18 03:30:23;;;;;;;;;11.50;9.75;;;;;11.86;74.29;99644.91;5032748;28;8825;-61
2022/09/18 03:32:50;;;;;;;;;7.25;6.75;;;;;11.85;74.14;99643.25;5032560;28;8901;-61
2022/09/18 03:35:18;;;;;;;;;12.00;10.00;;;;;11.87;74.06;99648.41;5032858;28;8821;-60
2022/09/18 03:37:46;;;;;;;;;7.25;6.75;;;;;11.86;74.18;99642.25;5032511;28;8910;-61
2022/09/18 03:40:14;;;;;;;;;10.50;8.50;;;;;11.85;74.22;99640.56;5032487;28;8910;-61
2022/09/18 03:42:43;;;;;;;;;11.25;9.25;;;;;11.85;74.52;99645.91;5032478;28;8840;-60
2022/09/18 03:45:10;;;;;;;;;9.00;7.00;;;;;11.85;74.37;99651.25;5032071;28;8911;-61
2022/09/18 03:47:38;;;;;;;;;10.25;9.25;;;;;11.86;74.19;99657.41;5031741;28;9502;-60
2022/09/18 03:50:06;;;;;;;;;7.00;7.00;;;;;11.83;74.35;99655.03;5032203;28;8860;-60
2022/09/18 03:52:33;;;;;;;;;6.50;4.00;;;;;11.82;74.48;99648.84;5031734;28;8905;-62
2022/09/18 03:55:01;;;;;;;;;10.00;9.00;;;;;11.81;74.55;99648.97;5031349;28;8901;-60
2022/09/18 03:57:29;;;;;;;;;9.00;9.00;;;;;11.80;74.32;99641.94;5032239;28;8837;-62
2022/09/18 03:59:56;;;;;;;;;9.25;9.25;;;;;11.79;74.34;99646.44;5031965;28;8845;-61
2022/09/18 04:02:24;;;;;;;;;9.00;9.00;;;;;11.78;74.39;99649.25;5031066;28;8889;-60
2022/09/18 04:04:52;;;;;;;;;12.00;9.00;;;;;11.74;74.55;99643.34;5034582;28;8827;-60
2022/09/18 04:07:20;;;;;;;;;8.00;7.50;;;;;11.70;74.49;99643.75;5035154;28;8856;-60
2022/09/18 04:09:48;;;;;;;;;6.50;3.00;;;;;11.67;74.90;99639.53;5034944;28;8821;-61
2022/09/18 04:12:16;;;;;;;;;10.00;9.00;;;;;11.63;75.23;99643.47;5034808;28;8905;-61
2022/09/18 04:14:43;;;;;;;;;2.00;0.00;;;;;11.61;74.76;99642.72;5035329;28;8910;-61
2022/09/18 04:17:11;;;;;;;;;10.75;10.00;;;;;11.58;75.16;99629.69;5034894;28;9506;-60
2022/09/18 04:19:38;;;;;;;;;8.50;7.00;;;;;11.55;75.15;99637.94;5035947;28;8829;-60
2022/09/18 04:22:06;;;;;;;;;9.75;7.50;;;;;11.52;75.11;99645.34;5035657;28;8845;-61
2022/09/18 04:24:38;;;;;;;;;9.75;8.00;;;;;11.49;75.42;99646.47;5035244;28;8902;-61
2022/09/18 04:27:06;;;;;;;;;3.50;3.50;;;;;11.46;75.72;99646.72;5035467;28;8829;-61
2022/09/18 04:29:33;;;;;;;;;7.50;7.50;;;;;11.41;75.45;99646.28;5035079;28;8805;-62
2022/09/18 04:32:01;;;;;;;;;10.00;9.50;;;;;11.39;75.10;99642.06;5035471;28;8878;-60
2022/09/18 04:34:29;;;;;;;;;8.00;8.00;;;;;11.39;75.79;99642.91;5035080;28;8926;-61
2022/09/18 04:36:56;;;;;;;;;8.25;7.25;;;;;11.39;75.66;99642.06;5035412;28;8821;-61
2022/09/18 04:39:24;;;;;;;;;7.50;6.50;;;;;11.38;75.97;99635.88;5034940;28;8923;-62
2022/09/18 04:41:51;;;;;;;;;7.75;7.75;;;;;11.37;75.58;99636.88;5034722;28;8829;-61
2022/09/18 04:44:19;;;;;;;;;6.50;6.00;;;;;11.36;75.83;99629.03;5033843;28;8844;-61
2022/09/18 04:46:47;;;;;;;;;11.75;11.50;;;;;11.37;75.67;99631.53;5033947;28;8863;-61
2022/09/18 04:49:15;;;;;;;;;8.50;6.50;;;;;11.41;75.48;99629.44;5034469;28;8813;-61
2022/09/18 04:51:42;;;;;;;;;7.50;7.00;;;;;11.43;76.23;99632.81;5035087;28;8817;-61
2022/09/18 04:54:10;;;;;;;;;11.00;9.25;;;;;11.41;75.79;99640.09;5034517;28;8833;-61
2022/09/18 04:56:39;;;;;;;;;9.00;8.00;;;;;11.37;76.22;99634.19;5033511;28;8833;-62
2022/09/18 04:59:07;;;;;;;;;6.25;6.25;;;;;11.35;75.79;99635.31;5033710;28;8809;-62
2022/09/18 05:01:35;;;;;;;;;9.00;7.00;;;;;11.33;76.37;99624.81;5035092;28;9529;-61
2022/09/18 05:04:02;;;;;;;;;10.00;7.00;;;;;11.32;76.61;99631.13;5035036;28;9522;-61
2022/09/18 05:06:30;;;;;;;;;7.75;6.25;;;;;11.33;76.65;99631.94;5034880;28;8845;-61
2022/09/18 05:08:58;;;;;;;;;6.50;6.25;;;;;11.33;76.37;99623.94;5035012;28;9518;-62
2022/09/18 05:11:25;;;;;;;;;9.00;8.50;;;;;11.33;76.64;99629.28;5034553;28;8967;-61
2022/09/18 05:13:55;;;;;;;;;6.00;5.50;;;;;11.31;76.28;99626.72;5034625;28;8854;-61
2022/09/18 05:16:23;;;;;;;;;6.25;6.00;;;;;11.32;76.17;99640.91;5033763;28;8817;-62
2022/09/18 05:18:51;;;;;;;;;7.00;6.00;;;;;11.30;76.26;99635.72;5034429;28;8825;-62
2022/09/18 05:21:19;;;;;;;;;10.25;9.00;;;;;11.29;76.79;99628.69;5034700;28;8825;-61
2022/09/18 05:23:47;;;;;;;;;9.00;8.00;;;;;11.28;76.30;99640.34;5034926;28;8844;-61
2022/09/18 05:26:14;;;;;;;;;6.50;5.50;;;;;11.27;76.68;99644.00;5034709;28;8885;-62
2022/09/18 05:28:42;;;;;;;;;6.50;6.50;;;;;11.26;76.74;99642.31;5033892;28;8817;-61
2022/09/18 05:31:09;;;;;;;;;6.00;6.00;;;;;11.26;76.84;99647.63;5034290;28;8837;-62
2022/09/18 05:33:40;;;;;;;;;4.50;4.00;;;;;11.25;76.96;99653.94;5034068;28;8840;-62
2022/09/18 05:36:07;;;;;;;;;6.00;5.50;;;;;11.24;77.03;99644.25;5034428;28;8849;-61
2022/09/18 05:38:35;;;;;;;;;6.50;6.25;;;;;11.26;76.94;99657.44;5034753;28;8895;-61
2022/09/18 05:41:03;;;;;;;;;4.50;4.50;;;;;11.27;76.79;99651.13;5034493;28;8837;-61
2022/09/18 05:43:30;;;;;;;;;4.00;3.75;;;;;11.28;77.05;99645.69;5034029;28;8929;-62
2022/09/18 05:45:58;;;;;;;;;5.50;5.50;;;;;11.30;77.02;99646.38;5033144;28;9551;-61
2022/09/18 05:48:26;;;;;;;;;5.50;5.00;;;;;11.32;77.17;99651.59;5032892;28;8913;-62
2022/09/18 05:50:54;;;;;;;;;1.00;1.00;;;;;11.32;76.82;99641.78;5033156;28;9595;-61
2022/09/18 05:53:21;;;;;;;;;6.00;5.00;;;;;11.34;76.90;99654.94;5032587;28;8817;-61
2022/09/18 05:55:49;;;;;;;;;5.25;3.75;;;;;11.34;76.48;99650.47;5032722;28;8813;-61
2022/09/18 05:58:17;;;;;;;;;4.50;4.50;;;;;11.36;76.31;99658.34;5032773;28;8932;-61
2022/09/18 06:00:46;;;;;;;;;5.50;4.00;;;;;11.38;76.50;99651.88;5032384;28;8905;-61
2022/09/18 06:03:14;;;;;;;;;3.50;3.50;;;;;11.40;76.43;99659.75;5032410;28;8833;-61
2022/09/18 06:05:41;;;;;;;;;4.50;4.50;;;;;11.39;76.81;99658.91;5032900;28;8855;-61
2022/09/18 06:08:09;;;;;;;;;3.00;3.00;;;;;11.38;76.40;99649.22;5033484;28;8901;-61
2022/09/18 06:10:38;;;;;;;;;6.75;5.00;;;;;11.40;77.03;99655.28;5032775;28;8891;-61
2022/09/18 06:13:05;;;;;;;;;2.75;2.50;;;;;11.43;76.43;99654.13;5033037;28;8836;-61
2022/09/18 06:15:33;;;;;;;;;5.00;4.00;;;;;11.48;76.46;99654.59;5032996;28;8840;-61
2022/09/18 06:18:01;;;;;;;;;4.50;4.00;;;;;11.52;76.76;99654.19;5033562;28;8837;-61
2022/09/18 06:20:28;;;;;;;;;3.50;3.50;;;;;11.55;75.94;99658.41;5033408;28;8841;-61
2022/09/18 06:22:56;;;;;;;;;3.00;3.00;;;;;11.57;76.38;99654.63;5033343;28;8905;-62
2022/09/18 06:25:24;;;;;;;;;4.00;3.25;;;;;11.61;76.16;99655.25;5033403;28;8821;-61
2022/09/18 06:27:57;;;;;;;;;1.50;1.50;;;;;11.64;75.91;99644.28;5031819;28;8824;-61
2022/09/18 06:30:25;;;;;;;;;5.00;3.75;;;;;11.68;76.27;99646.53;5033344;28;8955;-61
2022/09/18 06:32:53;;;;;;;;;4.50;3.75;;;;;11.72;76.07;99647.13;5033499;28;9611;-61
2022/09/18 06:35:20;;;;;;;;;4.25;3.75;;;;;11.75;75.71;99649.53;5033040;28;8907;-61
2022/09/18 06:37:48;;;;;;;;;4.50;4.00;;;;;11.76;75.55;99644.03;5032819;28;8817;-62
2022/09/18 06:40:15;;;;;;;;;3.50;3.50;;;;;11.77;75.76;99651.09;5033642;28;8829;-61
2022/09/18 06:42:43;;;;;;;;;3.25;3.25;;;;;11.79;76.00;99646.44;5033511;28;8851;-61
2022/09/18 06:45:12;;;;;;;;;0.50;0.50;;;;;11.80;75.89;99648.13;5033170;28;8832;-61
2022/09/18 06:47:40;;;;;;;;;5.50;3.25;;;;;11.80;76.01;99645.47;5033114;28;8817;-62
2022/09/18 06:50:08;;;;;;;;;3.00;2.50;;;;;11.81;75.98;99649.81;5032988;28;8833;-61
2022/09/18 06:52:35;;;;;;;;;3.00;3.00;;;;;11.82;75.74;99653.34;5033647;28;8903;-61
2022/09/18 06:55:03;;;;;;;;;1.00;1.00;;;;;11.86;75.73;99650.25;5033229;28;8864;-61
2022/09/18 06:57:31;;;;;;;;;3.00;3.00;;;;;11.86;76.26;99654.75;5033957;28;9463;-61
2022/09/18 06:59:59;;;;;;;;;4.75;3.00;;;;;11.86;75.81;99663.59;5033422;28;8821;-61
2022/09/18 07:02:26;;;;;;;;;5.00;4.00;;;;;11.88;76.27;99666.09;5034083;28;9490;-61
2022/09/18 07:04:54;;;;;;;;;5.50;5.50;;;;;11.88;76.32;99660.78;5033436;28;8817;-61
2022/09/18 07:07:22;;;;;;;;;3.00;2.00;;;;;11.85;76.18;99661.06;5033170;28;8836;-61
2022/09/18 07:09:50;;;;;;;;;5.50;5.50;;;;;11.85;76.32;99661.91;5033264;28;8825;-61
2022/09/18 07:12:18;;;;;;;;;4.00;4.00;;;;;11.85;76.03;99650.38;5033321;28;8825;-61
2022/09/18 07:14:45;;;;;;;;;6.00;4.00;;;;;11.85;76.28;99656.56;5033175;28;8840;-61
2022/09/18 07:17:13;;;;;;;;;6.00;4.00;;;;;11.85;76.27;99664.59;5032907;28;8833;-62
2022/09/18 07:19:45;;;;;;;;;6.00;6.00;;;;;11.83;76.51;99661.19;5032974;28;8829;-61
2022/09/18 07:22:13;;;;;;;;;6.50;6.25;;;;;11.84;76.68;99664.72;5033095;28;8840;-61
2022/09/18 07:24:42;;;;;;;;;5.25;4.75;;;;;11.82;76.58;99659.50;5033414;28;8813;-61
2022/09/18 07:27:10;;;;;;;;;6.00;4.00;;;;;11.81;76.95;99660.47;5033073;28;8833;-61
2022/09/18 07:29:38;;;;;;;;;4.00;3.00;;;;;11.81;76.52;99644.47;5032438;28;8836;-61
2022/09/18 07:32:06;;;;;;;;;5.50;5.50;;;;;11.82;76.65;99659.50;5032242;28;8825;-62
2022/09/18 07:34:33;;;;;;;;;7.50;6.50;;;;;11.84;76.90;99654.03;5031806;28;8818;-62
2022/09/18 07:37:02;;;;;;;;;6.50;6.00;;;;;11.83;76.30;99653.19;5031504;28;8852;-60
2022/09/18 07:39:30;;;;;;;;;7.00;6.75;;;;;11.81;76.59;99641.81;5031250;28;8909;-62
2022/09/18 07:41:57;;;;;;;;;6.00;5.00;;;;;11.78;76.83;99644.75;5031959;28;8849;-62
2022/09/18 07:44:26;;;;;;;;;8.25;7.75;;;;;11.80;76.69;99642.78;5032112;28;8821;-61
2022/09/18 07:46:54;;;;;;;;;6.50;6.50;;;;;11.78;77.22;99650.09;5032217;28;8893;-61
2022/09/18 07:49:22;;;;;;;;;8.00;6.00;;;;;11.79;76.92;99641.13;5032578;28;9510;-61
2022/09/18 07:51:50;;;;;;;;;7.00;7.00;;;;;11.81;76.89;99641.81;5032428;28;8837;-63
2022/09/18 07:54:18;;;;;;;;;4.00;3.25;;;;;11.86;77.17;99642.25;5032360;28;8825;-61
2022/09/18 07:56:46;;;;;;;;;3.00;2.50;;;;;11.89;76.93;99641.13;5032261;28;8837;-62
2022/09/18 07:59:13;;;;;;;;;5.00;5.00;;;;;11.91;76.69;99644.50;5030833;28;8826;-62
2022/09/18 08:01:41;;;;;;;;;6.75;6.25;;;;;11.93;76.99;99649.56;5031509;28;8893;-62
2022/09/18 08:04:09;;;;;;;;;4.00;3.75;;;;;11.97;77.01;99649.28;5031234;28;8813;-62
2022/09/18 08:06:37;;;;;;;;;8.00;6.75;;;;;11.97;77.07;99647.47;5031591;28;8901;-62
2022/09/18 08:09:04;;;;;;;;;6.25;6.00;;;;;12.00;76.68;99644.53;5031802;28;9321;-62
2022/09/18 08:11:32;;;;;;;;;7.50;7.00;;;;;12.01;76.56;99641.69;5031985;28;8872;-62
2022/09/18 08:14:00;;;;;;;;;4.00;3.50;;;;;12.04;76.79;99645.91;5032021;28;8829;-62
2022/09/18 08:16:28;;;;;;;;;6.25;4.50;;;;;12.03;76.57;99644.25;5032580;28;8829;-62
2022/09/18 08:18:56;;;;;;;;;5.50;4.00;;;;;12.04;76.41;99636.09;5032943;28;8821;-62
2022/09/18 08:21:23;;;;;;;;;6.00;4.50;;;;;12.07;76.69;99641.16;5031683;28;8833;-62
2022/09/18 08:23:51;;;;;;;;;4.00;3.50;;;;;12.15;76.16;99643.16;5031589;28;8837;-62
2022/09/18 08:26:19;;;;;;;;;7.00;4.50;;;;;12.18;76.37;99641.03;5032422;28;8809;-62
2022/09/18 08:28:49;;;;;;;;;3.50;3.50;;;;;12.22;76.48;99634.41;5031536;28;8887;-63
2022/09/18 08:31:16;;;;;;;;;6.00;4.00;;;;;12.25;76.50;99638.66;5032536;28;8817;-62
2022/09/18 08:33:44;;;;;;;;;3.50;3.50;;;;;12.28;76.14;99641.03;5032196;28;8824;-62
2022/09/18 08:36:11;;;;;;;;;5.50;5.00;;;;;12.26;76.20;99649.19;5032012;28;8821;-62
2022/09/18 08:38:39;;;;;;;;;8.00;6.50;;;;;12.24;76.48;99650.31;5032748;28;8929;-62
2022/09/18 08:41:07;;;;;;;;;5.00;5.00;;;;;12.21;76.30;99647.91;5032198;28;8837;-62
2022/09/18 08:43:35;;;;;;;;;5.00;3.50;;;;;12.19;76.65;99644.53;5031699;28;8837;-62
2022/09/18 08:46:03;;;;;;;;;6.50;6.50;;;;;12.17;76.67;99641.16;5032016;28;9573;-62
2022/09/18 08:48:30;;;;;;;;;4.25;3.75;;;;;12.16;76.97;99648.31;5031845;28;8813;-62
2022/09/18 08:50:58;;;;;;;;;4.50;4.00;;;;;12.14;76.64;99642.28;5033524;28;8828;-62
2022/09/18 08:53:26;;;;;;;;;1.25;0.75;;;;;12.14;76.97;99644.97;5034610;28;8940;-62
2022/09/18 08:55:54;;;;;;;;;3.25;3.25;;;;;12.17;76.40;99646.50;5034519;28;8848;-62
2022/09/18 08:58:22;;;;;;;;;4.50;3.50;;;;;12.17;76.76;99643.84;5034894;28;8821;-62
2022/09/18 09:00:49;;;;;;;;;0.75;0.75;;;;;12.16;76.78;99647.50;5034787;28;8812;-62
2022/09/18 09:03:17;;;;;;;;;2.00;1.00;;;;;12.13;77.09;99650.41;5035566;28;8912;-61
2022/09/18 09:05:45;;;;;;;;;2.50;1.50;;;;;12.12;77.40;99646.06;5034670;28;8836;-62
2022/09/18 09:08:13;;;;;;;;;3.00;3.00;;;;;12.08;77.47;99642.00;5034238;28;8820;-61
2022/09/18 09:10:40;;;;;;;;;1.00;1.00;;;;;12.03;77.59;99650.44;5035200;28;8841;-61
2022/09/18 09:13:08;;;;;;;;;1.00;1.00;;;;;12.00;77.30;99656.03;5034847;28;8828;-61
2022/09/18 09:15:36;;;;;;;;;3.00;2.50;;;;;11.98;77.10;99652.66;5034890;28;8832;-61
2022/09/18 09:18:05;;;;;;;;;0.25;0.25;;;;;11.95;77.41;99654.75;5034688;28;8841;-62
2022/09/18 09:20:33;;;;;;;;;1.00;1.00;;;;;11.93;77.56;99654.06;5034774;28;8905;-61
2022/09/18 09:23:00;;;;;;;;;1.00;1.00;;;;;11.88;77.58;99655.44;5034862;28;9501;-62
2022/09/18 09:25:28;;;;;;;;;3.25;2.25;;;;;11.76;78.13;99645.88;5034819;28;9514;-61
2022/09/18 09:27:56;;;;;;;;;1.50;1.00;;;;;11.65;78.31;99644.16;5034203;28;8825;-61
2022/09/18 09:30:24;;;;;;;;;1.00;1.00;;;;;11.60;78.51;99645.56;5034641;28;8833;-61
2022/09/18 09:32:51;;;;;;;;;0.50;0.50;;;;;11.54;78.36;99641.56;5034723;28;8821;-62
2022/09/18 09:35:19;;;;;;;;;1.00;0.25;;;;;11.45;78.47;99647.69;5033860;28;8810;-63
2022/09/18 09:37:47;;;;;;;;;0.50;0.50;;;;;11.39;78.40;99652.75;5034399;28;9482;-62
2022/09/18 09:40:15;;;;;;;;;0.50;0.00;;;;;11.36;78.44;99648.50;5034465;28;8834;-61
2022/09/18 09:42:42;;;;;;;;;0.75;0.75;;;;;11.37;78.57;99647.53;5034327;28;8968;-62
2022/09/18 09:45:10;;;;;;;;;1.00;1.00;;;;;11.40;78.79;99641.09;5034302;28;9494;-62
2022/09/18 09:47:38;;;;;;;;;1.00;1.00;;;;;11.43;78.66;99641.66;5034359;28;8844;-61
2022/09/18 09:50:05;;;;;;;;;1.50;1.50;;;;;11.52;78.12;99632.03;5034170;28;8844;-61
2022/09/18 09:52:33;;;;;;;;;1.00;1.00;;;;;11.56;78.39;99618.28;5034603;28;8852;-61
2022/09/18 09:55:01;;;;;;;;;1.00;1.00;;;;;11.63;78.03;99630.13;5034691;28;8939;-61
2022/09/18 09:57:29;;;;;;;;;2.00;2.00;;;;;11.69;78.08;99629.56;5035059;28;8825;-61
2022/09/18 09:59:57;;;;;;;;;3.25;2.50;;;;;11.75;77.41;99623.69;5035065;28;8825;-62
2022/09/18 10:02:24;;;;;;;;;3.00;3.00;;;;;11.78;77.86;99618.09;5034485;28;8832;-62
2022/09/18 10:04:52;;;;;;;;;2.50;2.50;;;;;11.83;77.18;99623.00;5034293;28;8959;-61
2022/09/18 10:07:20;;;;;;;;;6.00;4.50;;;;;11.86;77.55;99625.38;5034628;28;8821;-61
2022/09/18 10:09:48;;;;;;;;;4.00;3.75;;;;;11.86;77.61;99614.72;5033500;28;8873;-60
2022/09/18 10:12:15;;;;;;;;;3.00;3.00;;;;;11.88;77.80;99616.28;5032941;28;8885;-60
2022/09/18 10:14:43;;;;;;;;;3.00;1.50;;;;;11.93;77.74;99619.38;5033167;28;8882;-61
2022/09/18 10:17:11;;;;;;;;;3.25;3.00;;;;;11.97;77.11;99618.09;5033461;28;9580;-63
2022/09/18 10:19:39;;;;;;;;;6.75;6.00;;;;;11.98;77.75;99617.13;5032997;28;8922;-61
2022/09/18 10:22:07;;;;;;;;;4.00;4.00;;;;;12.01;77.59;99604.34;5032088;28;8813;-61
2022/09/18 10:24:35;;;;;;;;;4.00;4.00;;;;;12.03;77.59;99606.88;5032245;28;8855;-60
2022/09/18 10:27:02;;;;;;;;;4.00;3.75;;;;;12.04;77.30;99608.56;5031889;28;8917;-61
2022/09/18 10:29:30;;;;;;;;;5.50;3.75;;;;;12.07;77.26;99608.31;5032082;28;8829;-61
2022/09/18 10:32:02;;;;;;;;;5.00;4.00;;;;;12.11;77.81;99610.53;5032232;28;8829;-60
2022/09/18 10:34:29;;;;;;;;;3.25;3.25;;;;;12.15;77.34;99605.78;5032320;28;8821;-61
2022/09/18 10:36:57;;;;;;;;;1.50;1.50;;;;;12.18;76.90;99610.81;5031869;28;8917;-61
2022/09/18 10:39:25;;;;;;;;;3.50;3.50;;;;;12.19;77.01;99609.84;5032500;28;8825;-61
2022/09/18 10:41:57;;;;;;;;;4.00;4.00;;;;;12.22;77.39;99606.88;5033100;28;8980;-61
2022/09/18 10:44:25;;;;;;;;;4.00;3.75;;;;;12.24;76.37;99611.09;5032561;28;8836;-60
2022/09/18 10:46:53;;;;;;;;;3.50;3.50;;;;;12.26;77.64;99608.28;5032867;28;8833;-61
2022/09/18 10:49:21;;;;;;;;;3.00;3.00;;;;;12.28;77.02;99603.63;5033161;28;8829;-61
2022/09/18 10:51:48;;;;;;;;;3.25;3.00;;;;;12.31;76.88;99606.06;5032870;28;8817;-61
2022/09/18 10:54:16;;;;;;;;;3.75;3.00;;;;;12.31;76.78;99606.06;5033640;28;9526;-61
2022/09/18 10:56:44;;;;;;;;;3.00;3.00;;;;;12.32;77.21;99599.72;5033157;28;8845;-61
2022/09/18 10:59:12;;;;;;;;;3.00;3.00;;;;;12.30;77.65;99599.84;5033173;28;8897;-61
2022/09/18 11:01:39;;;;;;;;;2.00;2.00;;;;;12.31;76.88;99601.53;5033005;28;8825;-61
2022/09/18 11:04:11;;;;;;;;;3.00;3.00;;;;;12.35;76.87;99592.28;5033409;28;8953;-61
2022/09/18 11:06:40;;;;;;;;;1.50;1.00;;;;;12.44;77.12;99590.56;5033048;28;8825;-61
2022/09/18 11:09:08;;;;;;;;;0.50;0.50;;;;;12.51;76.60;99587.19;5032059;28;8832;-61
2022/09/18 11:11:35;;;;;;;;;0.00;0.00;;;;;12.57;76.55;99583.09;5031077;28;8861;-61
2022/09/18 11:14:03;;;;;;;;;1.00;1.00;;;;;12.59;76.20;99589.97;5029322;28;8913;-61
2022/09/18 11:16:31;;;;;;;;;3.75;3.00;;;;;12.62;76.70;99588.88;5029982;28;8892;-61
2022/09/18 11:18:59;;;;;;;;;9.00;9.00;;;;;12.63;76.24;99591.41;5029913;28;8848;-61
2022/09/18 11:21:33;;;;;;;;;3.00;3.00;;;;;12.66;76.37;99590.25;5030004;28;8844;-61
2022/09/18 11:24:00;;;;;;;;;5.50;5.50;;;;;12.66;76.73;99584.91;5030533;28;8857;-61
2022/09/18 11:26:28;;;;;;;;;3.00;3.00;;;;;12.67;76.46;99589.25;5031256;28;8833;-61
2022/09/18 11:28:56;;;;;;;;;5.00;5.00;;;;;12.65;76.43;99577.88;5031847;28;8836;-61
2022/09/18 11:31:24;;;;;;;;;3.00;3.00;;;;;12.65;76.50;99580.53;5031806;28;8859;-61
2022/09/18 11:33:52;;;;;;;;;3.00;3.00;;;;;12.66;76.73;99585.75;5032091;28;8841;-61
2022/09/18 11:36:20;;;;;;;;;4.50;3.00;;;;;12.69;76.47;99587.31;5031770;28;8833;-61
2022/09/18 11:38:48;;;;;;;;;4.50;4.50;;;;;12.68;76.63;99589.13;5031150;28;8913;-61
2022/09/18 11:41:16;;;;;;;;;3.75;3.75;;;;;12.67;76.62;99584.75;5031356;28;8856;-61